Time;durP1;ratioP1;P1;durP2;ratioP2;P2;SDS_P1;SDS_P2;PMS_P1;PMS_P2;Temp;Humidity;BMP_temperature;BMP_pressure;BME280_temperature;BME280_humidity;BME280_pressure;Samples;Min_cycle;Max_cycle;Signal;HPM_P1;HPM_P2
2022/09/13 00:00:51;;;;;;;12.15;8.95;;;;;;;13.13;100.00;97393.00;5109894;28;20133;-78
2022/09/13 00:03:17;;;;;;;12.45;8.82;;;;;;;13.11;100.00;97386.88;5110308;28;20099;-79
2022/09/13 00:05:42;;;;;;;13.88;9.65;;;;;;;13.08;100.00;97392.47;5109786;28;20106;-78
2022/09/13 00:08:08;;;;;;;13.43;8.90;;;;;;;13.07;100.00;97399.63;5109986;28;20031;-78
2022/09/13 00:10:36;;;;;;;14.82;9.70;;;;;;;13.08;100.00;97400.53;5126701;27;20573;-78
2022/09/13 00:13:02;;;;;;;15.57;9.25;;;;;;;13.08;100.00;97403.22;5109963;28;20118;-78
2022/09/13 00:15:28;;;;;;;14.27;9.40;;;;;;;13.11;100.00;97402.13;5109835;28;20028;-77
2022/09/13 00:17:53;;;;;;;14.55;9.25;;;;;;;13.12;100.00;97396.66;5109745;28;20035;-79
2022/09/13 00:20:19;;;;;;;12.30;8.45;;;;;;;13.08;100.00;97395.16;5110051;28;20024;-79
2022/09/13 00:22:44;;;;;;;13.02;9.57;;;;;;;13.07;100.00;97398.81;5109405;28;20028;-78
2022/09/13 00:25:10;;;;;;;13.60;9.07;;;;;;;13.13;100.00;97390.34;5109848;28;20027;-77
2022/09/13 00:27:36;;;;;;;14.38;9.20;;;;;;;13.22;100.00;97395.00;5126789;27;20467;-77
2022/09/13 00:30:06;;;;;;;14.48;8.68;;;;;;;13.17;100.00;97389.09;5126675;27;20471;-77
2022/09/13 00:32:33;;;;;;;12.80;8.20;;;;;;;13.16;100.00;97386.56;5109347;28;20028;-77
2022/09/13 00:34:59;;;;;;;14.27;8.25;;;;;;;13.06;100.00;97389.03;5126688;28;20483;-78
2022/09/13 00:37:25;;;;;;;17.13;8.32;;;;;;;13.00;100.00;97368.00;5109490;28;20058;-78
2022/09/13 00:39:50;;;;;;;11.77;8.05;;;;;;;12.98;100.00;97369.97;5110633;28;20020;-78
2022/09/13 00:42:16;;;;;;;12.90;8.50;;;;;;;13.03;100.00;97375.84;5109665;28;20036;-78
2022/09/13 00:44:48;;;;;;;14.00;8.52;;;;;;;13.11;100.00;97389.56;5109299;28;20107;-78
2022/09/13 00:47:17;;;;;;;17.58;8.07;;;;;;;13.14;100.00;97385.78;5126650;27;20055;-78
2022/09/13 00:49:45;;;;;;;14.73;8.48;;;;;;;13.20;100.00;97386.19;5109228;28;20035;-78
2022/09/13 00:52:15;;;;;;;11.65;8.65;;;;;;;13.13;100.00;97390.34;5109582;28;20045;-78
2022/09/13 00:54:44;;;;;;;17.52;9.88;;;;;;;13.19;100.00;97394.38;5109220;28;20391;-78
2022/09/13 00:57:10;;;;;;;14.88;8.88;;;;;;;13.28;100.00;97410.66;5109306;28;20051;-78
2022/09/13 00:59:37;;;;;;;12.57;8.98;;;;;;;13.34;100.00;97403.97;5112860;28;20023;-78
2022/09/13 01:02:03;;;;;;;15.82;8.90;;;;;;;13.27;100.00;97400.03;5112880;28;20051;-78
2022/09/13 01:04:31;;;;;;;12.73;8.23;;;;;;;13.23;100.00;97390.47;5130205;27;20058;-78
2022/09/13 01:07:01;;;;;;;14.27;9.40;;;;;;;13.18;100.00;97385.47;5111532;28;20027;-78
2022/09/13 01:09:27;;;;;;;12.77;9.07;;;;;;;13.16;100.00;97395.47;5112892;28;20031;-78
2022/09/13 01:12:02;;;;;;;11.77;8.65;;;;;;;13.12;100.00;97377.88;5112813;28;20043;-77
2022/09/13 01:14:28;;;;;;;11.23;7.95;;;;;;;13.10;100.00;97382.50;5113186;28;20023;-78
2022/09/13 01:16:53;;;;;;;10.80;8.07;;;;;;;13.03;100.00;97375.84;5112888;28;20406;-77
2022/09/13 01:19:19;;;;;;;12.55;8.75;;;;;;;12.98;100.00;97391.44;5112833;28;20031;-77
2022/09/13 01:22:06;;;;;;;13.20;9.15;;;;;;;12.99;100.00;97379.72;5113053;28;20031;-77
2022/09/13 01:24:47;;;;;;;12.02;8.55;;;;;;;13.03;100.00;97383.88;5129780;27;20077;-80
2022/09/13 01:27:18;;;;;;;14.60;8.90;;;;;;;13.09;100.00;97387.97;5113854;28;20031;-78
2022/09/13 01:30:12;;;;;;;13.83;8.67;;;;;;;13.01;100.00;97375.09;5129842;27;20028;-77
2022/09/13 01:32:44;;;;;;;14.38;8.52;;;;;;;13.00;100.00;97384.97;5124789;27;20031;-79
2022/09/13 01:35:17;;;;;;;13.20;9.70;;;;;;;12.89;100.00;97381.34;5129506;27;20505;-78
2022/09/13 01:38:01;;;;;;;19.48;9.60;;;;;;;12.86;100.00;97384.25;5113672;28;20054;-79
2022/09/13 01:40:51;;;;;;;17.10;8.70;;;;;;;12.82;100.00;97377.44;5113936;28;20486;-79
2022/09/13 01:43:32;;;;;;;11.10;8.25;;;;;;;12.68;100.00;97372.19;5129402;27;20035;-79
2022/09/13 01:46:25;;;;;;;11.98;8.35;;;;;;;12.66;100.00;97366.09;5129221;27;20055;-76
2022/09/13 01:49:17;;;;;;;15.10;7.78;;;;;;;12.67;100.00;97370.50;5092718;28;20084;-79
2022/09/13 01:51:55;;;;;;;13.77;8.93;;;;;;;12.68;100.00;97378.44;5103879;28;20039;-79
2022/09/13 01:54:35;;;;;;;13.18;8.98;;;;;;;12.62;100.00;97368.13;5094263;28;20023;-79
2022/09/13 01:57:11;;;;;;;18.58;8.98;;;;;;;12.58;100.00;97371.16;5112206;28;20028;-79
2022/09/13 01:59:59;;;;;;;14.05;9.43;;;;;;;12.54;100.00;97375.91;5104954;28;20027;-79
2022/09/13 02:02:30;;;;;;;16.02;8.57;;;;;;;12.48;100.00;97382.56;5112332;28;20035;-79
2022/09/13 02:05:03;;;;;;;20.13;10.95;;;;;;;12.39;100.00;97388.59;5112031;28;20039;-79
2022/09/13 02:07:33;;;;;;;17.63;10.07;;;;;;;12.40;100.00;97384.94;5094943;28;20027;-79
2022/09/13 02:10:22;;;;;;;16.10;9.52;;;;;;;12.40;100.00;97378.69;5094308;28;20461;-79
2022/09/13 02:12:50;;;;;;;13.18;9.18;;;;;;;12.42;100.00;97391.06;5108279;28;20540;-79
2022/09/13 02:15:18;;;;;;;18.92;11.30;;;;;;;12.41;100.00;97381.28;5111549;28;20138;-79
2022/09/13 02:17:55;;;;;;;16.23;9.02;;;;;;;12.37;100.00;97377.09;5111746;28;20051;-79
2022/09/13 02:20:30;;;;;;;14.48;8.93;;;;;;;12.33;100.00;97383.69;5111582;28;20098;-79
2022/09/13 02:22:57;;;;;;;15.57;9.05;;;;;;;12.35;100.00;97392.47;5111720;28;20469;-79
2022/09/13 02:25:24;;;;;;;15.00;10.77;;;;;;;12.38;100.00;97396.75;5111350;28;20026;-79
2022/09/13 02:27:54;;;;;;;19.27;9.98;;;;;;;12.33;100.00;97399.78;5094593;28;20027;-79
2022/09/13 02:30:21;;;;;;;17.33;9.57;;;;;;;12.42;100.00;97406.28;5111408;28;20032;-79
2022/09/13 02:32:59;;;;;;;14.48;9.73;;;;;;;12.38;100.00;97394.91;5111536;28;20020;-79
2022/09/13 02:35:38;;;;;;;16.13;9.32;;;;;;;12.31;100.00;97407.03;5111317;28;20030;-79
2022/09/13 02:38:23;;;;;;;16.38;9.60;;;;;;;12.25;100.00;97398.56;5125063;27;20066;-79
2022/09/13 02:40:59;;;;;;;15.23;10.05;;;;;;;12.22;100.00;97407.69;5111095;28;20043;-78
2022/09/13 02:43:39;;;;;;;14.60;9.75;;;;;;;12.24;100.00;97399.56;5111339;28;20068;-79
2022/09/13 02:46:33;;;;;;;20.17;9.43;;;;;;;12.28;100.00;97407.25;5111200;28;20042;-79
2022/09/13 02:49:13;;;;;;;14.48;9.32;;;;;;;12.32;100.00;97403.41;5108146;28;20032;-79
2022/09/13 02:51:56;;;;;;;13.82;9.15;;;;;;;12.34;100.00;97406.81;5111028;28;20048;-79
2022/09/13 02:54:30;;;;;;;15.25;8.55;;;;;;;12.35;100.00;97405.00;5111138;28;20023;-80
2022/09/13 02:57:07;;;;;;;12.93;8.50;;;;;;;12.39;100.00;97410.06;5128056;27;20119;-79
2022/09/13 02:59:33;;;;;;;13.82;8.20;;;;;;;12.24;100.00;97400.41;5111059;28;20479;-79
2022/09/13 03:02:05;;;;;;;11.88;7.95;;;;;;;12.15;100.00;97406.41;5110919;28;20398;-79
2022/09/13 03:04:31;;;;;;;11.95;7.97;;;;;;;12.11;100.00;97402.25;5110791;28;20024;-79
2022/09/13 03:06:57;;;;;;;13.02;7.93;;;;;;;12.18;100.00;97413.41;5110819;28;20036;-79
2022/09/13 03:09:23;;;;;;;13.75;8.90;;;;;;;12.06;100.00;97411.59;5110848;28;20098;-79
2022/09/13 03:12:10;;;;;;;13.80;9.10;;;;;;;12.07;100.00;97408.78;5110544;28;20032;-79
2022/09/13 03:14:57;;;;;;;16.23;9.25;;;;;;;12.10;100.00;97421.13;5127952;27;20114;-79
2022/09/13 03:17:44;;;;;;;13.77;9.07;;;;;;;12.05;100.00;97421.44;5112115;28;20051;-79
2022/09/13 03:20:09;;;;;;;17.23;8.63;;;;;;;12.01;100.00;97425.28;5102348;28;20081;-79
2022/09/13 03:22:47;;;;;;;19.42;9.35;;;;;;;12.03;100.00;97434.09;5111790;28;20425;-79
2022/09/13 03:25:38;;;;;;;23.45;13.13;;;;;;;11.98;100.00;97436.22;5102977;28;20110;-79
2022/09/13 03:28:33;;;;;;;21.70;12.73;;;;;;;11.93;100.00;97424.97;5096997;28;20478;-79
2022/09/13 03:31:07;;;;;;;23.95;11.13;;;;;;;11.89;100.00;97428.84;5069227;28;20067;-78
2022/09/13 03:33:39;;;;;;;21.63;11.20;;;;;;;11.86;100.00;97437.94;5093465;28;20379;-80
2022/09/13 03:36:15;;;;;;;19.33;11.15;;;;;;;11.99;100.00;97448.69;5111606;28;20050;-79
2022/09/13 03:39:04;;;;;;;18.05;8.75;;;;;;;11.98;100.00;97446.97;5093375;28;20040;-79
2022/09/13 03:41:36;;;;;;;17.23;9.88;;;;;;;12.08;100.00;97440.00;5111964;28;20375;-78
2022/09/13 03:44:05;;;;;;;18.30;10.00;;;;;;;12.09;100.00;97443.53;5110384;28;20494;-78
2022/09/13 03:46:37;;;;;;;17.90;10.13;;;;;;;12.06;100.00;97439.22;5093334;28;20027;-79
2022/09/13 03:49:06;;;;;;;16.35;9.52;;;;;;;12.03;100.00;97435.94;5110209;28;20122;-78
2022/09/13 03:51:32;;;;;;;16.88;9.75;;;;;;;12.00;100.00;97428.94;5110213;28;20478;-79
2022/09/13 03:54:01;;;;;;;17.42;9.45;;;;;;;12.14;100.00;97450.28;5110192;28;20031;-79
2022/09/13 03:56:27;;;;;;;24.08;9.98;;;;;;;12.21;100.00;97440.00;5110573;28;20481;-80
2022/09/13 03:58:52;;;;;;;20.02;11.32;;;;;;;12.21;100.00;97430.09;5110016;28;20122;-78
2022/09/13 04:01:21;;;;;;;21.48;10.10;;;;;;;12.31;100.00;97439.22;5093184;28;20034;-78
2022/09/13 04:03:47;;;;;;;22.65;10.65;;;;;;;12.25;100.00;97434.31;5110721;28;20024;-79
2022/09/13 04:06:12;;;;;;;19.95;9.65;;;;;;;12.34;100.00;97439.00;5093037;28;20475;-79
2022/09/13 04:08:38;;;;;;;20.02;10.45;;;;;;;12.40;100.00;97430.53;5109922;28;20032;-79
2022/09/13 04:11:04;;;;;;;15.95;9.32;;;;;;;12.49;100.00;97429.88;5092840;28;20035;-78
2022/09/13 04:13:29;;;;;;;16.25;10.20;;;;;;;12.55;100.00;97414.31;5110027;28;20023;-79
2022/09/13 04:16:01;;;;;;;20.02;10.27;;;;;;;12.52;100.00;97431.47;5109946;28;20065;-78
2022/09/13 04:18:27;;;;;;;13.82;9.15;;;;;;;12.55;100.00;97425.06;5093353;28;20031;-78
2022/09/13 04:20:54;;;;;;;14.68;8.77;;;;;;;12.61;100.00;97424.63;5110010;28;20023;-79
2022/09/13 04:23:20;;;;;;;11.98;8.45;;;;;;;12.61;100.00;97420.13;5109760;28;20509;-77
2022/09/13 04:25:46;;;;;;;18.55;9.23;;;;;;;12.67;100.00;97422.34;5109842;28;20110;-79
2022/09/13 04:28:11;;;;;;;16.30;9.35;;;;;;;12.76;100.00;97426.19;5109646;28;20055;-78
2022/09/13 04:30:37;;;;;;;14.90;8.55;;;;;;;12.68;100.00;97412.44;5110342;28;20023;-79
2022/09/13 04:33:02;;;;;;;15.32;8.18;;;;;;;12.67;100.00;97413.44;5112717;28;20096;-77
2022/09/13 04:35:28;;;;;;;13.00;8.20;;;;;;;12.71;100.00;97417.59;5114380;28;20035;-79
2022/09/13 04:37:57;;;;;;;15.45;9.90;;;;;;;12.63;100.00;97411.94;5115829;28;20484;-75
2022/09/13 04:40:23;;;;;;;14.30;8.75;;;;;;;12.68;100.00;97407.09;5113723;28;20019;-77
2022/09/13 04:42:49;;;;;;;14.50;8.90;;;;;;;12.86;100.00;97421.84;5113899;28;20098;-76
2022/09/13 04:45:14;;;;;;;11.68;8.40;;;;;;;12.83;100.00;97425.63;5113777;28;20478;-77
2022/09/13 04:47:40;;;;;;;17.33;9.57;;;;;;;12.91;100.00;97425.94;5113898;28;20087;-76
2022/09/13 04:50:06;;;;;;;11.63;8.02;;;;;;;13.17;100.00;97436.59;5113510;28;20020;-76
2022/09/13 04:52:32;;;;;;;13.27;8.30;;;;;;;13.41;100.00;97437.47;5096546;28;20093;-76
2022/09/13 04:55:00;;;;;;;18.92;8.43;;;;;;;13.58;100.00;97440.59;5096440;28;20459;-76
2022/09/13 04:57:29;;;;;;;20.35;8.38;;;;;;;13.65;100.00;97437.44;5113213;28;20026;-81
2022/09/13 04:59:54;;;;;;;13.52;8.38;;;;;;;13.62;100.00;97426.94;5097535;28;20030;-81
2022/09/13 05:02:20;;;;;;;19.23;8.73;;;;;;;13.64;100.00;97424.97;5114510;28;20027;-82
2022/09/13 05:04:45;;;;;;;12.80;8.35;;;;;;;13.61;100.00;97426.06;5114875;28;20028;-81
2022/09/13 05:07:11;;;;;;;18.90;8.65;;;;;;;13.64;100.00;97423.16;5114213;28;20034;-81
2022/09/13 05:09:52;;;;;;;15.00;9.15;;;;;;;13.74;100.00;97418.78;5112761;28;20015;-77
2022/09/13 05:12:21;;;;;;;13.02;8.00;;;;;;;13.55;100.00;97400.53;5114147;28;20161;-79
2022/09/13 05:14:46;;;;;;;16.40;9.05;;;;;;;13.63;100.00;97420.59;5110092;28;20038;-75
2022/09/13 05:17:12;;;;;;;16.20;8.98;;;;;;;13.58;100.00;97408.34;5109671;28;20035;-77
2022/09/13 05:19:37;;;;;;;16.73;8.80;;;;;;;13.65;100.00;97415.94;5110002;28;20772;-77
2022/09/13 05:22:03;;;;;;;13.98;9.23;;;;;;;13.84;100.00;97427.00;5112210;27;20031;-78
2022/09/13 05:24:29;;;;;;;14.75;7.75;;;;;;;13.97;100.00;97422.38;5109968;28;20023;-76
2022/09/13 05:26:56;;;;;;;15.55;8.02;;;;;;;14.01;100.00;97422.03;5109949;28;20027;-76
2022/09/13 05:29:21;;;;;;;12.10;7.45;;;;;;;14.08;100.00;97427.78;5109852;28;20076;-76
2022/09/13 05:31:47;;;;;;;32.83;20.85;;;;;;;14.18;100.00;97417.16;5110006;28;20110;-76
2022/09/13 05:34:16;;;;;;;28.67;15.85;;;;;;;14.29;100.00;97418.03;5092737;28;20023;-78
2022/09/13 05:36:42;;;;;;;24.67;13.63;;;;;;;14.35;100.00;97417.59;5092967;28;20555;-77
2022/09/13 05:39:13;;;;;;;20.48;11.27;;;;;;;14.39;100.00;97410.13;5109912;28;20023;-78
2022/09/13 05:41:39;;;;;;;17.52;10.55;;;;;;;14.43;100.00;97408.88;5092504;28;20027;-78
2022/09/13 05:44:04;;;;;;;17.23;10.20;;;;;;;14.55;100.00;97411.47;5108989;28;20043;-78
2022/09/13 05:46:30;;;;;;;16.60;9.55;;;;;;;15.50;100.00;97450.41;5092512;28;20032;-77
2022/09/13 05:48:58;;;;;;;12.93;7.85;;;;;;;15.82;100.00;97423.41;5126790;27;20548;-76
2022/09/13 05:51:25;;;;;;;15.10;9.15;;;;;;;16.89;100.00;97440.13;5109138;28;20054;-78
2022/09/13 05:53:52;;;;;;;13.55;8.05;;;;;;;19.23;92.40;97425.97;5109597;28;20153;-78
2022/09/13 05:56:25;;;;;;;9.52;6.57;;;;;;;21.22;79.28;97356.41;5109513;28;20031;-78
2022/09/13 05:58:52;;;;;;;10.10;6.28;;;;;;;22.98;67.41;97302.81;5109731;28;20020;-79
2022/09/13 06:01:19;;;;;;;15.38;6.20;;;;;;;23.50;63.06;97261.25;5109275;28;20561;-77
2022/09/13 06:03:49;;;;;;;7.88;5.90;;;;;;;24.44;58.48;97230.63;5109024;28;20483;-77
2022/09/13 06:06:15;;;;;;;8.40;6.30;;;;;;;24.75;57.02;97209.34;5109428;28;20506;-78
2022/09/13 06:08:41;;;;;;;11.35;6.82;;;;;;;25.68;54.96;97203.88;5092294;28;20023;-79
2022/09/13 06:11:11;;;;;;;15.32;9.05;;;;;;;26.37;52.02;97194.69;5109327;28;20024;-78
2022/09/13 06:13:37;;;;;;;21.73;9.48;;;;;;;26.76;49.93;97184.97;5108978;28;20034;-79
2022/09/13 06:16:05;;;;;;;20.73;11.13;;;;;;;24.26;54.73;97163.50;5108965;28;20036;-78
2022/09/13 06:18:32;;;;;;;16.08;8.95;;;;;;;22.67;60.19;97179.22;5091629;28;20431;-78
2022/09/13 06:20:59;;;;;;;21.27;8.60;;;;;;;21.65;64.67;97187.38;5109049;28;20032;-77
2022/09/13 06:23:25;;;;;;;20.98;8.88;;;;;;;23.21;62.07;97194.53;5125934;27;20042;-77
2022/09/13 06:25:59;;;;;;;14.93;8.30;;;;;;;25.11;55.53;97182.00;5091578;28;20464;-77
2022/09/13 06:28:25;;;;;;;22.23;8.85;;;;;;;25.74;54.33;97186.63;5108847;28;20478;-77
2022/09/13 06:30:50;;;;;;;14.32;7.75;;;;;;;25.96;52.05;97169.09;5108295;28;20031;-77
2022/09/13 06:33:16;;;;;;;14.50;8.00;;;;;;;25.62;52.23;97160.81;5109171;28;20039;-78
2022/09/13 06:35:42;;;;;;;15.48;8.80;;;;;;;24.25;55.46;97160.94;5108791;28;20031;-78
2022/09/13 06:38:07;;;;;;;11.35;7.43;;;;;;;23.27;58.64;97170.25;5108305;28;20055;-79
2022/09/13 06:40:33;;;;;;;23.45;9.00;;;;;;;23.35;58.83;97170.22;5108603;28;20171;-78
2022/09/13 06:42:58;;;;;;;13.50;7.93;;;;;;;22.42;61.44;97169.44;5091608;28;20039;-79
2022/09/13 06:45:24;;;;;;;17.85;7.70;;;;;;;21.59;64.31;97177.16;5108332;28;20039;-78
2022/09/13 06:47:53;;;;;;;12.27;7.28;;;;;;;21.27;65.40;97167.16;5108229;28;20104;-79
2022/09/13 06:50:19;;;;;;;16.25;7.80;;;;;;;21.57;66.73;97190.94;5091632;28;20039;-78
2022/09/13 06:52:45;;;;;;;17.73;6.55;;;;;;;23.94;59.45;97207.56;5124815;27;20500;-78
2022/09/13 06:55:10;;;;;;;11.60;7.07;;;;;;;25.75;53.87;97191.06;5107544;28;20464;-78
2022/09/13 06:57:36;;;;;;;8.65;6.45;;;;;;;26.96;50.03;97177.66;5107919;28;20028;-78
2022/09/13 07:00:02;;;;;;;12.27;6.30;;;;;;;26.97;49.43;97171.13;5108045;28;20066;-78
2022/09/13 07:02:27;;;;;;;15.52;6.95;;;;;;;25.99;50.87;97165.97;5108297;28;20390;-78
2022/09/13 07:04:53;;;;;;;19.23;7.35;;;;;;;25.21;52.71;97156.00;5109187;27;20343;-78
2022/09/13 07:07:19;;;;;;;12.15;7.65;;;;;;;23.51;57.04;97159.16;5108121;28;20031;-78
2022/09/13 07:09:44;;;;;;;16.48;7.38;;;;;;;24.93;54.70;97176.97;5107854;28;20036;-78
2022/09/13 07:12:10;;;;;;;13.07;6.30;;;;;;;26.55;51.18;97182.34;5108055;28;20126;-78
2022/09/13 07:14:36;;;;;;;9.60;5.90;;;;;;;28.87;45.93;97186.72;5107951;28;20055;-79
2022/09/13 07:17:01;;;;;;;13.25;6.78;;;;;;;29.23;43.82;97167.66;5107881;28;20035;-79
2022/09/13 07:19:27;;;;;;;14.93;6.32;;;;;;;27.13;47.03;97159.78;5108036;28;20028;-79
2022/09/13 07:21:54;;;;;;;9.85;6.20;;;;;;;25.81;49.64;97154.63;5107885;28;20044;-78
2022/09/13 07:24:20;;;;;;;19.92;4.82;;;;;;;25.80;50.11;97172.13;5108172;28;20038;-78
2022/09/13 07:26:46;;;;;;;7.40;4.90;;;;;;;25.86;49.87;97163.97;5108245;28;20053;-77
2022/09/13 07:29:15;;;;;;;6.25;4.80;;;;;;;26.49;48.49;97167.53;5107915;28;20023;-78
2022/09/13 07:31:43;;;;;;;6.30;4.20;;;;;;;25.85;48.97;97161.41;5091009;28;20023;-78
2022/09/13 07:34:14;;;;;;;6.85;3.97;;;;;;;26.45;48.42;97168.16;5107884;28;20089;-79
2022/09/13 07:36:40;;;;;;;9.82;3.72;;;;;;;28.94;42.99;97173.78;5124814;27;20450;-78
2022/09/13 07:39:06;;;;;;;6.53;3.90;;;;;;;30.50;39.46;97170.06;5107738;28;20072;-79
2022/09/13 07:41:32;;;;;;;4.80;3.45;;;;;;;31.36;37.14;97153.22;5107769;28;20913;-79
2022/09/13 07:44:00;;;;;;;6.30;3.15;;;;;;;30.60;38.30;97149.13;5107446;28;20090;-78
2022/09/13 07:46:27;;;;;;;15.85;4.00;;;;;;;32.45;35.91;97159.06;5107457;28;20031;-79
2022/09/13 07:48:54;;;;;;;4.95;3.10;;;;;;;31.89;34.65;97131.09;5108612;28;20035;-78
2022/09/13 07:51:22;;;;;;;5.90;3.05;;;;;;;28.18;39.36;97112.22;5107750;28;20031;-78
2022/09/13 07:53:49;;;;;;;8.25;4.10;;;;;;;26.74;43.68;97132.16;5107646;28;20035;-78
2022/09/13 07:56:17;;;;;;;4.88;2.92;;;;;;;27.50;41.46;97143.78;5107352;28;20035;-77
2022/09/13 07:58:44;;;;;;;3.85;2.67;;;;;;;29.41;38.57;97150.44;5107386;28;20027;-78
2022/09/13 08:01:16;;;;;;;4.10;3.17;;;;;;;28.49;40.21;97131.56;5106810;28;20024;-78
2022/09/13 08:03:42;;;;;;;6.45;3.10;;;;;;;26.46;43.70;97125.94;5124295;28;20024;-77
2022/09/13 08:06:08;;;;;;;7.47;3.10;;;;;;;25.77;44.57;97115.00;5090195;28;20065;-77
2022/09/13 08:08:35;;;;;;;4.53;2.92;;;;;;;25.99;44.78;97140.44;5093850;28;20029;-78
2022/09/13 08:11:02;;;;;;;4.15;2.70;;;;;;;28.57;41.21;97161.63;5111024;28;20081;-78
2022/09/13 08:13:27;;;;;;;6.85;1.88;;;;;;;29.04;38.95;97141.06;5111299;28;20143;-78
2022/09/13 08:15:54;;;;;;;8.43;2.42;;;;;;;28.14;40.61;97125.56;5111390;28;20498;-78
2022/09/13 08:18:20;;;;;;;4.57;2.15;;;;;;;26.49;41.51;97118.13;5111415;28;20121;-78
2022/09/13 08:20:46;;;;;;;4.20;1.90;;;;;;;25.40;42.97;97101.59;5094560;28;20058;-77
2022/09/13 08:23:12;;;;;;;7.25;1.85;;;;;;;25.09;43.77;97110.19;5128182;27;20055;-78
2022/09/13 08:25:38;;;;;;;5.93;1.90;;;;;;;26.97;41.60;97132.69;5110955;28;20472;-79
2022/09/13 08:28:09;;;;;;;4.35;1.85;;;;;;;29.75;37.15;97149.91;5110904;28;20039;-77
2022/09/13 08:30:36;;;;;;;9.80;2.50;;;;;;;31.37;34.58;97144.69;5111241;28;20020;-78
2022/09/13 08:33:03;;;;;;;4.80;1.90;;;;;;;32.55;31.87;97130.72;5111007;28;20035;-77
2022/09/13 08:35:29;;;;;;;3.35;1.67;;;;;;;32.99;29.78;97109.78;5093916;28;20038;-77
2022/09/13 08:37:55;;;;;;;2.65;1.55;;;;;;;33.57;28.86;97110.34;5110857;28;20083;-78
2022/09/13 08:40:21;;;;;;;6.20;1.70;;;;;;;33.98;28.91;97103.56;5110728;28;20111;-78
2022/09/13 08:42:57;;;;;;;1.77;1.52;;;;;;;34.94;28.02;97106.91;5111324;28;20157;-77
2022/09/13 08:45:23;;;;;;;1.75;1.65;;;;;;;34.70;27.31;97092.44;5112097;28;20028;-77
2022/09/13 08:48:05;;;;;;;1.65;1.55;;;;;;;34.30;28.25;97103.81;5110853;28;20045;-78
2022/09/13 08:50:37;;;;;;;2.08;1.60;;;;;;;32.93;28.90;97077.50;5110383;28;20024;-78
2022/09/13 08:53:11;;;;;;;5.97;1.90;;;;;;;33.33;29.25;97078.31;5111028;28;20099;-77
2022/09/13 08:55:50;;;;;;;4.28;2.10;;;;;;;33.83;27.98;97085.84;5127829;27;20579;-77
2022/09/13 08:58:54;;;;;;;3.90;1.55;;;;;;;34.31;27.54;97080.47;5127507;27;20530;-78
2022/09/13 09:01:28;;;;;;;3.38;1.85;;;;;;;32.92;29.09;97067.50;5069358;28;20546;-78
2022/09/13 09:04:17;;;;;;;5.35;2.00;;;;;;;34.00;27.67;97072.75;5104302;28;20065;-78
2022/09/13 09:06:44;;;;;;;7.90;2.00;;;;;;;34.19;27.18;97069.50;5114002;28;20035;-78
2022/09/13 09:09:15;;;;;;;14.35;2.17;;;;;;;32.18;29.00;97059.03;5095982;28;20547;-77
2022/09/13 09:11:49;;;;;;;;;;;;;;;31.01;30.58;97061.91;5113514;28;20085;-78
2022/09/13 09:14:30;;;;;;;6.85;3.10;;;;;;;29.30;33.86;97057.41;5113023;28;19916;-79
2022/09/13 09:17:03;;;;;;;8.52;3.42;;;;;;;30.71;32.27;97074.81;5096113;28;20032;-78
2022/09/13 09:20:00;;;;;;;3.45;2.33;;;;;;;32.48;30.12;97081.03;5111609;28;20024;-76
2022/09/13 09:22:30;;;;;;;3.42;2.10;;;;;;;33.92;27.79;97075.97;5055343;28;20037;-77
2022/09/13 09:24:56;;;;;;;6.15;2.50;;;;;;;34.64;27.25;97068.47;5113065;28;20385;-78
2022/09/13 09:27:22;;;;;;;2.88;2.15;;;;;;;35.54;26.26;97057.47;5129640;27;20027;-78
2022/09/13 09:29:49;;;;;;;2.05;1.75;;;;;;;35.79;25.41;97049.34;5114844;28;20023;-77
2022/09/13 09:32:35;;;;;;;2.30;1.98;;;;;;;36.33;25.38;97055.56;5114347;28;20093;-78
2022/09/13 09:35:19;;;;;;;5.30;1.75;;;;;;;37.23;23.96;97059.03;5129826;27;20035;-78
2022/09/13 09:37:52;;;;;;;3.40;1.85;;;;;;;35.38;25.32;97021.44;5113733;28;20048;-78
2022/09/13 09:40:18;;;;;;;3.47;1.90;;;;;;;34.84;26.09;97016.72;5112694;28;20038;-79
2022/09/13 09:42:46;;;;;;;1.77;1.30;;;;;;;33.36;27.48;97019.53;5129453;27;20102;-78
2022/09/13 09:45:32;;;;;;;2.03;1.60;;;;;;;32.44;27.92;96999.50;5113402;28;20087;-79
2022/09/13 09:48:06;;;;;;;1.70;1.48;;;;;;;33.50;27.86;97017.28;5112456;28;20035;-78
2022/09/13 09:50:35;;;;;;;3.97;2.40;;;;;;;33.80;27.04;97012.25;5112155;28;20076;-78
2022/09/13 09:53:05;;;;;;;6.45;1.70;;;;;;;35.55;25.50;97024.91;5112145;28;20505;-78
2022/09/13 09:55:34;;;;;;;4.85;1.80;;;;;;;36.68;23.99;97020.63;5109549;28;20032;-80
2022/09/13 09:58:05;;;;;;;2.20;1.65;;;;;;;37.10;23.99;97014.94;5112099;28;20024;-79
2022/09/13 10:00:34;;;;;;;2.42;2.00;;;;;;;37.66;23.39;97018.59;5112522;28;20022;-79
2022/09/13 10:03:04;;;;;;;4.07;1.73;;;;;;;37.64;23.21;97002.13;5112072;28;20066;-79
2022/09/13 10:05:31;;;;;;;1.63;1.52;;;;;;;36.57;24.00;96994.69;5111481;28;20058;-79
2022/09/13 10:08:02;;;;;;;1.52;1.42;;;;;;;34.26;25.82;96972.09;5111914;28;20537;-77
2022/09/13 10:10:40;;;;;;;1.70;1.60;;;;;;;33.08;27.67;96972.47;5111692;28;20063;-78
2022/09/13 10:13:07;;;;;;;9.85;2.10;;;;;;;32.62;27.50;96970.78;5129032;27;20038;-76
2022/09/13 10:15:34;;;;;;;1.45;1.20;;;;;;;32.68;26.90;96978.09;5091553;28;20063;-77
2022/09/13 10:18:06;;;;;;;1.80;1.30;;;;;;;32.40;27.23;96976.13;5092008;28;20043;-78
2022/09/13 10:20:32;;;;;;;;;;;;;;;33.71;26.53;96989.63;5109246;28;20015;-77
2022/09/13 10:23:19;;;;;;;18.75;4.40;;;;;;;34.44;25.07;96977.31;5091879;28;19916;-78
2022/09/13 10:26:01;;;;;;;2.40;1.73;;;;;;;34.38;24.56;96974.72;5108705;28;20032;-77
2022/09/13 10:28:27;;;;;;;1.95;1.27;;;;;;;35.09;23.64;96970.81;5126174;27;20035;-78
2022/09/13 10:31:12;;;;;;;2.55;1.35;;;;;;;35.15;23.31;96961.41;5108249;27;20036;-77
2022/09/13 10:33:50;;;;;;;4.03;2.10;;;;;;;35.67;22.92;96967.97;5109132;28;20411;-78
2022/09/13 10:36:19;;;;;;;5.78;1.50;;;;;;;36.46;21.89;96967.00;5091806;28;20027;-77
2022/09/13 10:38:58;;;;;;;6.13;1.75;;;;;;;37.60;21.55;96970.31;5125151;27;20055;-78
2022/09/13 10:41:26;;;;;;;3.58;1.48;;;;;;;36.39;22.41;96958.91;5108670;28;20084;-76
2022/09/13 10:44:03;;;;;;;2.50;1.40;;;;;;;36.44;22.27;96958.91;5108342;28;20088;-77
2022/09/13 10:46:31;;;;;;;2.20;1.20;;;;;;;35.86;23.14;96944.16;5108854;28;20031;-76
2022/09/13 10:48:57;;;;;;;3.97;1.42;;;;;;;36.73;22.63;96957.34;5091143;28;20100;-78
2022/09/13 10:51:26;;;;;;;1.35;1.20;;;;;;;36.93;22.50;96954.63;5108249;27;20478;-77
2022/09/13 10:54:07;;;;;;;1.60;1.50;;;;;;;36.78;23.14;96951.81;5125264;27;20027;-77
2022/09/13 10:56:33;;;;;;;1.58;1.27;;;;;;;37.14;23.01;96954.66;5108885;28;20038;-78
2022/09/13 10:59:21;;;;;;;1.60;1.50;;;;;;;37.85;22.71;96973.06;5108499;28;20122;-78
2022/09/13 11:01:51;;;;;;;1.30;1.20;;;;;;;38.57;20.61;96952.19;5107936;28;20101;-78
2022/09/13 11:04:16;;;;;;;1.50;1.20;;;;;;;38.11;20.01;96943.13;5125533;27;20409;-78
2022/09/13 11:07:02;;;;;;;2.42;1.10;;;;;;;38.81;19.94;96941.16;5125605;27;20027;-78
2022/09/13 11:09:50;;;;;;;2.45;1.67;;;;;;;38.06;21.08;96933.91;5108259;28;20027;-77
2022/09/13 11:12:33;;;;;;;1.75;1.20;;;;;;;37.59;21.60;96925.91;5124938;27;20039;-77
2022/09/13 11:15:33;;;;;;;7.47;1.25;;;;;;;36.95;21.92;96918.91;5124820;27;20039;-78
2022/09/13 11:18:20;;;;;;;4.68;1.25;;;;;;;36.37;22.24;96911.78;5107750;28;20023;-78
2022/09/13 11:21:09;;;;;;;2.92;1.40;;;;;;;34.56;23.68;96914.06;5125608;27;20399;-77
2022/09/13 11:23:47;;;;;;;1.38;1.27;;;;;;;34.92;22.92;96906.94;5109335;28;20467;-77
2022/09/13 11:26:42;;;;;;;;;;;;;;;;;;;;;
2022/09/13 11:29:43;;;;;;;1.45;1.30;;;;;;;34.83;23.33;96901.03;5108769;28;20057;-77
2022/09/13 11:32:22;;;;;;;3.42;1.35;;;;;;;35.66;22.99;96920.91;5107455;28;20153;-77
2022/09/13 11:35:14;;;;;;;1.88;1.30;;;;;;;35.68;22.90;96913.97;5107992;28;20031;-78
2022/09/13 11:37:43;;;;;;;;;;;;;;;36.11;22.55;96911.97;5061999;28;20036;-77
2022/09/13 11:40:14;;;;;;;2.03;1.60;;;;;;;35.95;22.84;96896.28;5090660;28;19916;-77
2022/09/13 11:42:57;;;;;;;8.93;1.95;;;;;;;36.72;22.42;96908.28;5125039;27;20035;-77